createdAt,value
2023-01-04T00:01:15.145Z,75.42
2023-01-04T00:03:42.862Z,74.81
2023-01-04T00:06:12.458Z,75.81
2023-01-04T00:08:39.677Z,76.08
2023-01-04T00:11:11.906Z,76.48
2023-01-04T00:13:39.149Z,76.03
2023-01-04T00:16:13.757Z,76.36
2023-01-04T00:18:41.121Z,76.28
2023-01-04T00:21:19.190Z,76.38
2023-01-04T00:23:48.752Z,76.58
2023-01-04T00:26:19.237Z,76.23
2023-01-04T00:28:53.663Z,76.31
2023-01-04T00:31:22.846Z,75.54
2023-01-04T00:33:51.399Z,75.66
2023-01-04T00:36:19.134Z,75.85
2023-01-04T00:38:46.328Z,75.81
2023-01-04T00:41:34.732Z,76.73
2023-01-04T00:44:04.426Z,76.55
2023-01-04T00:46:32.763Z,76.67
2023-01-04T00:49:00.965Z,77.48
2023-01-04T00:51:29.951Z,77.46
2023-01-04T00:53:58.641Z,77.77
2023-01-04T00:56:25.864Z,77.82
2023-01-04T00:59:01.457Z,77.99
2023-01-04T01:01:30.105Z,78.78
2023-01-04T01:03:59.301Z,78.29
2023-01-04T01:06:28.245Z,78.54
2023-01-04T01:08:56.115Z,79.07
2023-01-04T01:11:24.261Z,79.81
2023-01-04T01:13:51.994Z,80.03
2023-01-04T01:16:44.310Z,80.29
2023-01-04T01:19:08.782Z,80.18
2023-01-04T01:21:36.086Z,80.12
2023-01-04T01:24:03.049Z,80.74
2023-01-04T01:26:30.323Z,80.44
2023-01-04T01:28:57.226Z,81.20
2023-01-04T01:31:27.398Z,81.29
2023-01-04T01:33:55.919Z,80.74
2023-01-04T01:36:24.978Z,81.02
2023-01-04T01:38:52.704Z,81.29
2023-01-04T01:41:32.281Z,81.66
2023-01-04T01:44:00.532Z,81.35
2023-01-04T01:46:42.957Z,81.20
2023-01-04T01:49:16.939Z,82.17
2023-01-04T01:51:44.876Z,82.80
2023-01-04T01:54:17.653Z,82.90
2023-01-04T01:56:48.124Z,83.24
2023-01-04T01:59:16.989Z,83.19
2023-01-04T02:01:45.429Z,83.58
2023-01-04T02:04:14.605Z,83.98
2023-01-04T02:06:48.964Z,84.19
2023-01-04T02:09:17.876Z,84.43
2023-01-04T02:11:45.053Z,84.35
2023-01-04T02:14:28.721Z,84.52
2023-01-04T02:17:29.516Z,84.87
2023-01-04T02:20:05.508Z,85.56
2023-01-04T02:22:57.477Z,85.93
2023-01-04T02:25:55.233Z,85.37
2023-01-04T02:29:00.775Z,85.70
2023-01-04T02:31:27.851Z,86.00
2023-01-04T02:34:14.260Z,86.37
2023-01-04T02:36:48.233Z,86.74
2023-01-04T02:39:35.798Z,86.76
2023-01-04T02:42:47.315Z,87.40
2023-01-04T02:45:18.346Z,88.04
2023-01-04T02:48:04.605Z,88.36
2023-01-04T02:50:37.354Z,88.34
2023-01-04T02:53:16.604Z,88.56
2023-01-04T02:56:03.982Z,88.75
2023-01-04T02:58:39.952Z,88.78
2023-01-04T03:01:40.430Z,88.75
2023-01-04T03:04:34.332Z,89.08
2023-01-04T03:07:25.912Z,89.05
2023-01-04T03:10:00.677Z,89.43
2023-01-04T03:12:31.416Z,89.21
2023-01-04T03:15:22.954Z,89.44
2023-01-04T03:17:56.411Z,89.47
2023-01-04T03:20:25.807Z,89.32
2023-01-04T03:23:18.646Z,89.68
2023-01-04T03:26:11.827Z,89.71
2023-01-04T03:29:19.054Z,89.73
2023-01-04T03:32:14.975Z,90.09
2023-01-04T03:35:00.412Z,90.23
2023-01-04T03:37:36.581Z,90.61
2023-01-04T03:40:47.296Z,90.28
2023-01-04T03:43:42.344Z,90.43
2023-01-04T03:46:39.538Z,90.45
2023-01-04T03:49:14.026Z,90.50
2023-01-04T03:51:42.685Z,90.89
2023-01-04T03:54:22.523Z,90.94
2023-01-04T03:56:50.860Z,91.00
2023-01-04T03:59:18.221Z,91.21
2023-01-04T04:01:45.653Z,91.17
2023-01-04T04:04:31.633Z,91.40
2023-01-04T04:07:17.308Z,91.63
2023-01-04T04:09:44.641Z,91.39
2023-01-04T04:12:11.587Z,91.57
2023-01-04T04:14:38.839Z,91.61
2023-01-04T04:17:05.760Z,91.68
2023-01-04T04:19:32.986Z,91.87
2023-01-04T04:21:59.991Z,91.98
2023-01-04T04:24:27.558Z,92.07
2023-01-04T04:26:55.367Z,92.37
2023-01-04T04:29:24.270Z,92.10
2023-01-04T04:31:51.609Z,92.32
2023-01-04T04:34:19.028Z,92.50
2023-01-04T04:36:46.218Z,92.71
2023-01-04T04:39:13.987Z,92.75
2023-01-04T04:41:41.795Z,92.71
2023-01-04T04:44:14.584Z,92.79
2023-01-04T04:46:42.729Z,92.94
2023-01-04T04:49:11.125Z,92.75
2023-01-04T04:51:38.571Z,92.59
2023-01-04T04:54:07.211Z,92.67
2023-01-04T04:56:37.114Z,92.92
2023-01-04T04:59:05.373Z,92.76
2023-01-04T05:01:33.307Z,93.00
2023-01-04T05:04:00.829Z,92.75
2023-01-04T05:06:28.453Z,93.15
2023-01-04T05:08:56.034Z,93.19
2023-01-04T05:11:43.124Z,93.29
2023-01-04T05:14:10.518Z,93.45
2023-01-04T05:16:37.607Z,93.35
2023-01-04T05:19:05.055Z,93.29
2023-01-04T05:21:32.098Z,93.59
2023-01-04T05:23:59.453Z,93.72
2023-01-04T05:26:26.423Z,93.72
2023-01-04T05:28:54.327Z,93.56
2023-01-04T05:31:22.210Z,93.70
2023-01-04T05:33:49.508Z,93.78
2023-01-04T05:36:16.459Z,93.97
2023-01-04T05:38:44.017Z,93.89
2023-01-04T05:41:29.822Z,93.75
2023-01-04T05:43:57.630Z,94.19
2023-01-04T05:46:24.737Z,94.28
2023-01-04T05:48:52.155Z,93.84
2023-01-04T05:51:19.118Z,93.84
2023-01-04T05:53:46.266Z,93.78
2023-01-04T05:56:13.154Z,94.17
2023-01-04T05:58:40.412Z,94.45
2023-01-04T06:01:07.835Z,94.29
2023-01-04T06:03:35.296Z,94.38
2023-01-04T06:06:02.265Z,94.24
2023-01-04T06:08:29.485Z,94.44
2023-01-04T06:10:56.384Z,94.42
2023-01-04T06:13:23.740Z,94.80
2023-01-04T06:15:50.583Z,94.74
2023-01-04T06:18:17.806Z,94.90
2023-01-04T06:20:44.723Z,95.17
2023-01-04T06:23:12.278Z,95.29
2023-01-04T06:25:39.207Z,95.01
2023-01-04T06:28:06.451Z,95.15
2023-01-04T06:30:33.715Z,94.96
2023-01-04T06:33:00.885Z,95.28
2023-01-04T06:35:27.918Z,95.21
2023-01-04T06:37:55.053Z,95.25
2023-01-04T06:40:21.968Z,95.28
2023-01-04T06:42:49.218Z,95.21
2023-01-04T06:45:17.062Z,95.07
2023-01-04T06:47:44.873Z,94.96
2023-01-04T06:50:12.168Z,95.04
2023-01-04T06:52:40.317Z,95.15
2023-01-04T06:55:09.722Z,95.26
2023-01-04T06:57:37.623Z,94.98
2023-01-04T07:00:06.574Z,94.76
2023-01-04T07:02:34.157Z,94.59
2023-01-04T07:05:01.638Z,94.49
2023-01-04T07:07:29.117Z,94.60
2023-01-04T07:09:56.633Z,94.54
2023-01-04T07:12:24.132Z,94.71
2023-01-04T07:14:51.056Z,94.36
2023-01-04T07:17:18.219Z,94.53
2023-01-04T07:19:45.151Z,95.03
2023-01-04T07:22:13.085Z,94.76
2023-01-04T07:24:40.280Z,94.82
2023-01-04T07:27:07.634Z,94.63
2023-01-04T07:29:34.513Z,94.62
2023-01-04T07:32:02.012Z,94.68
2023-01-04T07:34:29.341Z,94.42
2023-01-04T07:36:56.499Z,94.31
2023-01-04T07:39:23.354Z,94.17
2023-01-04T07:41:50.987Z,94.12
2023-01-04T07:44:21.872Z,94.26
2023-01-04T07:46:49.256Z,94.05
2023-01-04T07:49:18.520Z,94.16
2023-01-04T07:51:47.703Z,93.61
2023-01-04T07:54:15.954Z,93.25
2023-01-04T07:56:44.333Z,93.52
2023-01-04T07:59:12.998Z,93.62
2023-01-04T08:01:41.648Z,93.40
2023-01-04T08:04:09.801Z,93.14
2023-01-04T08:06:38.078Z,93.28
2023-01-04T08:09:06.323Z,93.01
2023-01-04T08:11:34.294Z,93.18
2023-01-04T08:14:01.860Z,93.29
2023-01-04T08:16:35.380Z,93.54
2023-01-04T08:19:09.450Z,93.59
2023-01-04T08:21:36.803Z,93.75
2023-01-04T08:24:04.464Z,92.88
2023-01-04T08:26:32.320Z,92.85
2023-01-04T08:28:59.900Z,92.49
2023-01-04T08:31:29.924Z,92.75
2023-01-04T08:33:57.966Z,92.40
2023-01-04T08:36:30.786Z,92.04
2023-01-04T08:39:06.402Z,92.08
2023-01-04T08:42:04.237Z,92.35
2023-01-04T08:44:34.503Z,91.84
2023-01-04T08:47:02.150Z,91.10
2023-01-04T08:49:29.339Z,91.15
2023-01-04T08:51:56.764Z,90.95
2023-01-04T08:54:23.768Z,91.13
2023-01-04T08:56:51.025Z,90.69
2023-01-04T08:59:17.921Z,89.98
2023-01-04T09:01:46.280Z,90.64
2023-01-04T09:04:13.599Z,90.32
2023-01-04T09:06:41.075Z,90.23
2023-01-04T09:09:08.239Z,90.12
2023-01-04T09:11:37.860Z,90.23
2023-01-04T09:14:08.638Z,89.62
2023-01-04T09:16:37.383Z,89.21
2023-01-04T09:19:05.264Z,89.04
2023-01-04T09:21:32.519Z,88.53
2023-01-04T09:23:59.687Z,88.09
2023-01-04T09:26:27.240Z,87.46
2023-01-04T09:28:55.513Z,85.43
2023-01-04T09:31:25.984Z,85.96
2023-01-04T09:36:41.401Z,85.45
2023-01-04T09:39:10.772Z,84.87
2023-01-04T09:41:53.486Z,84.79
2023-01-04T09:45:02.952Z,83.68
2023-01-04T09:47:37.823Z,84.39
2023-01-04T09:50:14.351Z,83.96
2023-01-04T09:53:03.045Z,84.35
2023-01-04T09:56:08.801Z,84.46
2023-01-04T09:58:39.998Z,84.12
2023-01-04T10:01:24.228Z,84.10
2023-01-04T10:04:23.571Z,83.38
2023-01-04T10:06:51.411Z,82.83
2023-01-04T10:09:19.113Z,82.94
2023-01-04T10:12:22.165Z,82.69
2023-01-04T10:15:13.868Z,82.80
2023-01-04T10:23:54.350Z,83.00
2023-01-04T10:26:33.788Z,82.87
2023-01-04T10:29:09.896Z,82.33
2023-01-04T10:31:46.200Z,81.10
2023-01-04T10:34:23.363Z,81.58
2023-01-04T10:36:56.107Z,81.27
2023-01-04T10:39:32.467Z,80.98
2023-01-04T10:42:10.739Z,81.00
2023-01-04T10:45:11.967Z,80.33
2023-01-04T10:47:55.734Z,81.29
2023-01-04T10:50:44.038Z,81.75
2023-01-04T10:53:22.998Z,81.76
2023-01-04T10:56:23.901Z,81.19
2023-01-04T10:58:52.196Z,81.35
2023-01-04T11:01:24.352Z,81.37
2023-01-04T11:04:30.303Z,81.10
2023-01-04T11:07:06.666Z,80.51
2023-01-04T11:09:55.649Z,81.23
2023-01-04T11:12:23.539Z,80.57
2023-01-04T11:14:51.713Z,81.24
2023-01-04T11:17:21.085Z,81.20
2023-01-04T11:19:48.874Z,81.39
2023-01-04T11:22:21.152Z,80.98
2023-01-04T11:27:49.705Z,80.35
2023-01-04T11:30:27.386Z,80.35
2023-01-04T11:33:11.584Z,80.01
2023-01-04T11:35:44.541Z,80.07
2023-01-04T11:38:27.758Z,80.12
2023-01-04T11:40:54.930Z,79.79
2023-01-04T11:43:23.784Z,79.78
2023-01-04T11:45:54.944Z,79.94
2023-01-04T11:48:36.139Z,80.17
2023-01-04T11:51:04.924Z,80.12
2023-01-04T11:53:37.189Z,80.31
2023-01-04T11:56:13.627Z,80.43
2023-01-04T11:58:41.472Z,80.23
2023-01-04T12:01:23.943Z,80.37
2023-01-04T12:03:51.775Z,80.59
2023-01-04T12:06:25.064Z,80.39
2023-01-04T12:08:52.149Z,80.07
2023-01-04T12:11:30.549Z,80.11
2023-01-04T12:13:59.754Z,80.50
2023-01-04T12:16:50.423Z,80.47
2023-01-04T12:19:19.293Z,80.84
2023-01-04T12:21:50.530Z,80.14
2023-01-04T12:24:27.322Z,80.47
2023-01-04T12:26:55.097Z,80.87
2023-01-04T12:29:24.557Z,80.91
2023-01-04T12:32:04.751Z,80.96
2023-01-04T12:34:31.626Z,81.05
2023-01-04T12:37:05.229Z,81.24
2023-01-04T12:39:43.694Z,81.79
2023-01-04T12:42:18.794Z,81.49
2023-01-04T12:44:46.994Z,81.32
2023-01-04T12:47:38.752Z,81.31
2023-01-04T12:50:13.192Z,81.38
2023-01-04T12:55:45.026Z,81.72
2023-01-04T12:58:42.238Z,81.84
2023-01-04T13:01:28.193Z,81.86
2023-01-04T13:04:15.573Z,81.46
2023-01-04T13:06:45.887Z,82.07
2023-01-04T13:09:23.970Z,81.77
2023-01-04T13:11:51.994Z,81.48
2023-01-04T13:14:38.106Z,81.90
2023-01-04T13:17:18.904Z,81.89
2023-01-04T13:19:46.604Z,81.33
2023-01-04T13:22:29.408Z,81.61
2023-01-04T13:25:00.296Z,81.86
2023-01-04T13:27:27.740Z,81.71
2023-01-04T13:29:55.673Z,81.81
2023-01-04T13:32:26.364Z,81.31
2023-01-04T13:35:03.671Z,80.89
2023-01-04T13:37:48.889Z,81.11
2023-01-04T13:40:36.131Z,81.26
2023-01-04T13:43:15.073Z,81.42
2023-01-04T13:45:45.244Z,81.50
2023-01-04T13:48:19.402Z,81.61
2023-01-04T13:51:05.705Z,81.79
2023-01-04T13:53:33.462Z,81.70
2023-01-04T13:56:02.889Z,81.50
2023-01-04T13:58:32.132Z,81.84
2023-01-04T14:01:11.555Z,81.84
2023-01-04T14:03:53.297Z,81.78
2023-01-04T14:06:45.658Z,81.39
2023-01-04T14:09:13.588Z,81.61
2023-01-04T14:12:06.755Z,81.67
2023-01-04T14:14:37.432Z,81.56
2023-01-04T14:17:10.476Z,81.53
2023-01-04T14:20:01.216Z,81.33
2023-01-04T14:22:37.301Z,81.21
2023-01-04T14:25:38.552Z,81.39
2023-01-04T14:28:30.417Z,81.14
2023-01-04T14:31:00.313Z,81.11
2023-01-04T14:33:36.217Z,81.06
2023-01-04T14:36:06.197Z,80.75
2023-01-04T14:38:39.532Z,80.72
2023-01-04T14:41:29.435Z,80.48
2023-01-04T14:43:56.585Z,80.48
2023-01-04T14:46:23.765Z,80.27
2023-01-04T14:48:51.200Z,79.83
2023-01-04T14:51:20.484Z,79.90
2023-01-04T14:53:48.087Z,80.05
2023-01-04T14:56:16.940Z,80.85
2023-01-04T14:58:45.253Z,81.31
2023-01-04T15:01:12.767Z,81.99
2023-01-04T15:03:40.274Z,82.91
2023-01-04T15:06:07.652Z,82.97
2023-01-04T15:08:34.961Z,84.01
2023-01-04T15:11:02.646Z,84.41
2023-01-04T15:13:38.824Z,84.76
2023-01-04T15:16:08.058Z,85.26
2023-01-04T15:18:35.736Z,85.50
2023-01-04T15:21:03.884Z,85.58
2023-01-04T15:23:31.228Z,85.39
2023-01-04T15:26:01.700Z,85.62
2023-01-04T15:28:29.085Z,85.65
2023-01-04T15:30:56.104Z,86.20
2023-01-04T15:33:23.337Z,86.27
2023-01-04T15:35:59.620Z,86.41
2023-01-04T15:38:45.701Z,86.28
2023-01-04T15:41:34.842Z,86.18
2023-01-04T15:44:03.085Z,86.45
2023-01-04T15:46:30.534Z,86.31
2023-01-04T15:48:57.719Z,86.63
2023-01-04T15:51:25.031Z,86.51
2023-01-04T15:53:53.035Z,86.31
2023-01-04T15:56:21.370Z,86.54
2023-01-04T15:58:52.920Z,86.04
2023-01-04T16:01:20.817Z,86.20
2023-01-04T16:03:51.499Z,86.05
2023-01-04T16:06:22.019Z,86.20
2023-01-04T16:08:51.964Z,86.85
2023-01-04T16:11:21.914Z,86.67
2023-01-04T16:13:50.623Z,86.92
2023-01-04T16:16:19.097Z,86.48
2023-01-04T16:18:48.219Z,86.69
2023-01-04T16:21:18.155Z,87.11
2023-01-04T16:23:49.742Z,87.23
2023-01-04T16:26:17.509Z,86.68
2023-01-04T16:28:53.194Z,87.21
2023-01-04T16:31:21.530Z,87.49
2023-01-04T16:33:52.985Z,87.39
2023-01-04T16:36:20.631Z,87.24
2023-01-04T16:38:47.659Z,87.49
2023-01-04T16:41:17.745Z,87.93
2023-01-04T16:43:50.597Z,88.36
2023-01-04T16:46:29.166Z,88.57
2023-01-04T16:49:09.732Z,89.12
2023-01-04T16:51:38.624Z,89.13
2023-01-04T16:54:08.949Z,89.27
2023-01-04T16:56:37.476Z,90.08
2023-01-04T16:59:05.466Z,90.50
2023-01-04T17:01:36.132Z,90.92
2023-01-04T17:04:10.607Z,91.02
2023-01-04T17:06:41.518Z,91.84
2023-01-04T17:09:17.614Z,92.25
2023-01-04T17:12:46.441Z,92.62
2023-01-04T17:14:44.486Z,93.24
2023-01-04T17:17:11.864Z,93.36
2023-01-04T17:19:38.900Z,93.91
2023-01-04T17:22:06.300Z,94.52
2023-01-04T17:24:33.235Z,95.31
2023-01-04T17:27:00.441Z,95.55
2023-01-04T17:29:27.742Z,95.99
2023-01-04T17:31:55.210Z,96.36
2023-01-04T17:34:23.427Z,96.92
2023-01-04T17:36:51.113Z,97.35
2023-01-04T17:39:21.013Z,97.59
2023-01-04T17:41:48.539Z,98.03
2023-01-04T17:44:15.499Z,98.27
2023-01-04T17:46:43.226Z,98.22
2023-01-04T17:49:31.730Z,98.52
2023-01-04T17:51:59.989Z,99.09
2023-01-04T17:54:27.213Z,98.98
2023-01-04T17:56:54.534Z,99.22
2023-01-04T17:59:21.452Z,99.39
2023-01-04T18:01:48.978Z,99.71
2023-01-04T18:04:16.395Z,99.79
2023-01-04T18:06:43.648Z,99.98
2023-01-04T18:09:14.375Z,100.00
2023-01-04T18:11:44.609Z,100.00
2023-01-04T18:14:14.114Z,100.00
2023-01-04T18:16:57.641Z,100.00
2023-01-04T18:19:30.356Z,100.00
2023-01-04T18:21:58.737Z,100.00
2023-01-04T18:24:37.768Z,100.00
2023-01-04T18:27:25.039Z,100.00
2023-01-04T18:29:54.765Z,100.00
2023-01-04T18:32:24.295Z,100.00
2023-01-04T18:34:51.864Z,100.00
2023-01-04T18:37:19.563Z,100.00
2023-01-04T18:39:48.060Z,100.00
2023-01-04T18:42:16.013Z,100.00
2023-01-04T18:44:48.383Z,100.00
2023-01-04T18:47:19.958Z,100.00
2023-01-04T18:49:48.290Z,100.00
2023-01-04T18:52:15.958Z,100.00
2023-01-04T18:54:44.982Z,100.00
2023-01-04T18:57:12.554Z,100.00
2023-01-04T18:59:40.177Z,100.00
2023-01-04T19:02:07.626Z,100.00
2023-01-04T19:04:36.369Z,100.00
2023-01-04T19:07:03.630Z,100.00
2023-01-04T19:09:30.760Z,100.00
2023-01-04T19:11:58.207Z,100.00
2023-01-04T19:14:25.126Z,100.00
2023-01-04T19:16:55.421Z,100.00
2023-01-04T19:19:22.627Z,100.00
2023-01-04T19:21:50.439Z,100.00
2023-01-04T19:24:17.672Z,100.00
2023-01-04T19:26:45.396Z,100.00
2023-01-04T19:29:12.821Z,100.00
2023-01-04T19:31:40.078Z,100.00
2023-01-04T19:34:10.057Z,100.00
2023-01-04T19:36:37.500Z,100.00
2023-01-04T19:39:08.151Z,100.00
2023-01-04T19:41:36.650Z,100.00
2023-01-04T19:44:08.878Z,100.00
2023-01-04T19:46:40.388Z,100.00
2023-01-04T19:49:14.197Z,100.00
2023-01-04T19:51:45.236Z,100.00
2023-01-04T19:54:12.774Z,100.00
2023-01-04T19:56:40.036Z,100.00
2023-01-04T19:59:07.139Z,100.00
2023-01-04T20:01:34.518Z,100.00
2023-01-04T20:04:01.554Z,100.00
2023-01-04T20:06:28.870Z,100.00
2023-01-04T20:08:55.794Z,100.00
2023-01-04T20:11:23.089Z,100.00
2023-01-04T20:13:50.057Z,100.00
2023-01-04T20:16:17.268Z,100.00
2023-01-04T20:18:44.576Z,100.00
2023-01-04T20:21:14.193Z,100.00
2023-01-04T20:23:41.617Z,100.00
2023-01-04T20:26:12.912Z,100.00
2023-01-04T20:28:41.978Z,100.00
2023-01-04T20:31:11.535Z,100.00
2023-01-04T20:33:38.759Z,100.00
2023-01-04T20:36:09.032Z,100.00
2023-01-04T20:38:39.975Z,100.00
2023-01-04T20:41:08.531Z,100.00
2023-01-04T20:43:37.326Z,100.00
2023-01-04T20:46:11.561Z,100.00
2023-01-04T20:48:38.756Z,100.00
2023-01-04T20:51:08.122Z,100.00
2023-01-04T20:53:36.326Z,100.00
2023-01-04T20:56:30.632Z,100.00
2023-01-04T20:58:57.931Z,100.00
2023-01-04T21:01:25.587Z,100.00
2023-01-04T21:03:53.179Z,100.00
2023-01-04T21:06:23.081Z,100.00
2023-01-04T21:08:54.730Z,100.00
2023-01-04T21:11:22.836Z,100.00
2023-01-04T21:13:51.116Z,100.00
2023-01-04T21:16:18.445Z,100.00
2023-01-04T21:18:45.346Z,100.00
2023-01-04T21:21:15.122Z,100.00
2023-01-04T21:23:43.871Z,100.00
2023-01-04T21:26:29.416Z,100.00
2023-01-04T21:28:56.673Z,100.00
2023-01-04T21:31:25.349Z,100.00
2023-01-04T21:33:53.748Z,100.00
2023-01-04T21:36:24.336Z,100.00
2023-01-04T21:38:54.263Z,100.00
2023-01-04T21:41:25.591Z,100.00
2023-01-04T21:43:56.187Z,100.00
2023-01-04T21:46:24.410Z,100.00
2023-01-04T21:48:57.233Z,100.00
2023-01-04T21:51:24.341Z,100.00
2023-01-04T21:53:51.662Z,100.00
2023-01-04T21:56:20.469Z,100.00
2023-01-04T21:58:48.349Z,100.00
2023-01-04T22:01:18.471Z,100.00
2023-01-04T22:03:45.852Z,100.00
2023-01-04T22:06:14.080Z,100.00
2023-01-04T22:08:46.459Z,100.00
2023-01-04T22:11:15.220Z,100.00
2023-01-04T22:13:43.607Z,100.00
2023-01-04T22:16:14.303Z,100.00
2023-01-04T22:18:45.052Z,100.00
2023-01-04T22:21:14.387Z,100.00
2023-01-04T22:23:42.035Z,100.00
2023-01-04T22:26:09.394Z,100.00
2023-01-04T22:28:37.446Z,100.00
2023-01-04T22:31:06.925Z,100.00
2023-01-04T22:33:35.673Z,100.00
2023-01-04T22:36:07.853Z,100.00
2023-01-04T22:38:36.316Z,100.00
2023-01-04T22:41:08.931Z,100.00
2023-01-04T22:43:38.480Z,100.00
2023-01-04T22:46:08.272Z,100.00
2023-01-04T22:48:35.888Z,100.00
2023-01-04T22:51:11.125Z,100.00
2023-01-04T22:53:38.920Z,100.00
2023-01-04T22:56:20.807Z,100.00
2023-01-04T22:58:54.330Z,100.00
2023-01-04T23:01:30.254Z,100.00
2023-01-04T23:03:59.489Z,100.00
2023-01-04T23:06:28.389Z,100.00
2023-01-04T23:09:07.702Z,100.00
2023-01-04T23:11:35.809Z,100.00
2023-01-04T23:14:05.733Z,100.00
2023-01-04T23:16:33.485Z,100.00
2023-01-04T23:19:01.949Z,100.00
2023-01-04T23:21:30.034Z,100.00
2023-01-04T23:23:58.005Z,100.00
2023-01-04T23:26:26.502Z,100.00
2023-01-04T23:28:53.726Z,100.00
2023-01-04T23:31:23.347Z,100.00
2023-01-04T23:33:56.244Z,100.00
2023-01-04T23:36:28.887Z,100.00
2023-01-04T23:38:58.634Z,100.00
2023-01-04T23:41:44.833Z,100.00
2023-01-04T23:44:24.136Z,100.00
2023-01-04T23:47:02.320Z,100.00
2023-01-04T23:49:31.094Z,100.00
2023-01-04T23:51:58.440Z,100.00
2023-01-04T23:54:26.171Z,100.00
2023-01-04T23:56:53.848Z,100.00
2023-01-04T23:59:22.370Z,100.00
